sensor_id;sensor_type;location;lat;lon;timestamp;P1;durP1;ratioP1;P2;durP2;ratioP2
5217;SDS011;26539;51.064;6.346;2023-09-08T00:02:07;7.63;;;6.70;;
5217;SDS011;26539;51.064;6.346;2023-09-08T00:04:33;6.50;;;5.83;;
5217;SDS011;26539;51.064;6.346;2023-09-08T00:06:58;7.63;;;6.80;;
5217;SDS011;26539;51.064;6.346;2023-09-08T00:09:24;6.70;;;6.10;;
5217;SDS011;26539;51.064;6.346;2023-09-08T00:11:50;7.87;;;7.07;;
5217;SDS011;26539;51.064;6.346;2023-09-08T00:14:15;9.20;;;6.47;;
5217;SDS011;26539;51.064;6.346;2023-09-08T00:16:42;9.30;;;7.43;;
5217;SDS011;26539;51.064;6.346;2023-09-08T00:19:08;7.30;;;6.60;;
5217;SDS011;26539;51.064;6.346;2023-09-08T00:21:34;12.37;;;8.37;;
5217;SDS011;26539;51.064;6.346;2023-09-08T00:24:01;7.77;;;6.27;;
5217;SDS011;26539;51.064;6.346;2023-09-08T00:26:26;9.00;;;6.90;;
5217;SDS011;26539;51.064;6.346;2023-09-08T00:28:52;7.90;;;6.80;;
5217;SDS011;26539;51.064;6.346;2023-09-08T00:31:17;7.70;;;6.90;;
5217;SDS011;26539;51.064;6.346;2023-09-08T00:33:43;7.90;;;7.07;;
5217;SDS011;26539;51.064;6.346;2023-09-08T00:36:09;12.33;;;7.50;;
5217;SDS011;26539;51.064;6.346;2023-09-08T00:38:35;7.80;;;6.83;;
5217;SDS011;26539;51.064;6.346;2023-09-08T00:41:00;12.37;;;6.90;;
5217;SDS011;26539;51.064;6.346;2023-09-08T00:43:26;9.03;;;6.63;;
5217;SDS011;26539;51.064;6.346;2023-09-08T00:45:52;8.43;;;7.00;;
5217;SDS011;26539;51.064;6.346;2023-09-08T00:48:19;6.80;;;6.20;;
5217;SDS011;26539;51.064;6.346;2023-09-08T00:50:45;7.13;;;6.40;;
5217;SDS011;26539;51.064;6.346;2023-09-08T00:53:11;7.80;;;7.07;;
5217;SDS011;26539;51.064;6.346;2023-09-08T00:55:37;7.23;;;6.53;;
5217;SDS011;26539;51.064;6.346;2023-09-08T00:58:04;9.00;;;6.97;;
5217;SDS011;26539;51.064;6.346;2023-09-08T01:00:32;7.73;;;6.93;;
5217;SDS011;26539;51.064;6.346;2023-09-08T01:02:58;9.33;;;7.57;;
5217;SDS011;26539;51.064;6.346;2023-09-08T01:05:24;10.60;;;7.23;;
5217;SDS011;26539;51.064;6.346;2023-09-08T01:07:50;8.10;;;6.77;;
5217;SDS011;26539;51.064;6.346;2023-09-08T01:10:17;8.77;;;7.77;;
5217;SDS011;26539;51.064;6.346;2023-09-08T01:12:42;7.53;;;6.70;;
5217;SDS011;26539;51.064;6.346;2023-09-08T01:15:08;8.13;;;6.90;;
5217;SDS011;26539;51.064;6.346;2023-09-08T01:17:34;12.30;;;7.00;;
5217;SDS011;26539;51.064;6.346;2023-09-08T01:20:08;8.83;;;6.57;;
5217;SDS011;26539;51.064;6.346;2023-09-08T01:25:24;7.27;;;6.57;;
5217;SDS011;26539;51.064;6.346;2023-09-08T01:27:54;13.27;;;6.73;;
5217;SDS011;26539;51.064;6.346;2023-09-08T01:30:23;8.73;;;7.83;;
5217;SDS011;26539;51.064;6.346;2023-09-08T01:32:50;8.43;;;7.63;;
5217;SDS011;26539;51.064;6.346;2023-09-08T01:35:17;8.97;;;7.53;;
5217;SDS011;26539;51.064;6.346;2023-09-08T01:37:46;10.37;;;7.50;;
5217;SDS011;26539;51.064;6.346;2023-09-08T01:40:13;11.97;;;8.87;;
5217;SDS011;26539;51.064;6.346;2023-09-08T01:42:39;7.50;;;6.80;;
5217;SDS011;26539;51.064;6.346;2023-09-08T01:45:05;11.13;;;7.90;;
5217;SDS011;26539;51.064;6.346;2023-09-08T01:47:32;15.07;;;7.73;;
5217;SDS011;26539;51.064;6.346;2023-09-08T01:49:58;7.47;;;6.20;;
5217;SDS011;26539;51.064;6.346;2023-09-08T01:52:24;8.83;;;7.73;;
5217;SDS011;26539;51.064;6.346;2023-09-08T01:54:50;9.27;;;6.93;;
5217;SDS011;26539;51.064;6.346;2023-09-08T01:57:15;8.70;;;7.80;;
5217;SDS011;26539;51.064;6.346;2023-09-08T01:59:41;11.97;;;8.40;;
5217;SDS011;26539;51.064;6.346;2023-09-08T02:02:07;9.10;;;7.77;;
5217;SDS011;26539;51.064;6.346;2023-09-08T02:04:32;10.20;;;9.20;;
5217;SDS011;26539;51.064;6.346;2023-09-08T02:06:58;7.90;;;7.10;;
5217;SDS011;26539;51.064;6.346;2023-09-08T02:09:31;10.60;;;7.50;;
5217;SDS011;26539;51.064;6.346;2023-09-08T02:11:57;14.10;;;7.40;;
5217;SDS011;26539;51.064;6.346;2023-09-08T02:14:22;9.93;;;7.00;;
5217;SDS011;26539;51.064;6.346;2023-09-08T02:16:48;10.37;;;8.50;;
5217;SDS011;26539;51.064;6.346;2023-09-08T02:19:13;9.40;;;7.60;;
5217;SDS011;26539;51.064;6.346;2023-09-08T02:21:39;9.03;;;8.13;;
5217;SDS011;26539;51.064;6.346;2023-09-08T02:24:04;11.40;;;7.93;;
5217;SDS011;26539;51.064;6.346;2023-09-08T02:26:30;14.53;;;7.67;;
5217;SDS011;26539;51.064;6.346;2023-09-08T02:28:58;9.70;;;7.70;;
5217;SDS011;26539;51.064;6.346;2023-09-08T02:31:24;7.80;;;7.10;;
5217;SDS011;26539;51.064;6.346;2023-09-08T02:33:51;10.97;;;7.83;;
5217;SDS011;26539;51.064;6.346;2023-09-08T02:36:16;8.53;;;7.63;;
5217;SDS011;26539;51.064;6.346;2023-09-08T02:38:42;10.53;;;7.80;;
5217;SDS011;26539;51.064;6.346;2023-09-08T02:41:07;8.60;;;7.73;;
5217;SDS011;26539;51.064;6.346;2023-09-08T02:43:33;8.17;;;7.30;;
5217;SDS011;26539;51.064;6.346;2023-09-08T02:45:59;10.07;;;7.40;;
5217;SDS011;26539;51.064;6.346;2023-09-08T02:48:24;7.97;;;7.17;;
5217;SDS011;26539;51.064;6.346;2023-09-08T02:50:50;9.10;;;8.20;;
5217;SDS011;26539;51.064;6.346;2023-09-08T02:53:15;9.80;;;8.80;;
5217;SDS011;26539;51.064;6.346;2023-09-08T02:55:41;8.40;;;7.60;;
5217;SDS011;26539;51.064;6.346;2023-09-08T02:58:06;8.93;;;8.03;;
5217;SDS011;26539;51.064;6.346;2023-09-08T03:00:32;10.53;;;8.80;;
5217;SDS011;26539;51.064;6.346;2023-09-08T03:02:57;10.30;;;8.10;;
5217;SDS011;26539;51.064;6.346;2023-09-08T03:05:23;9.47;;;8.43;;
5217;SDS011;26539;51.064;6.346;2023-09-08T03:07:48;12.40;;;8.67;;
5217;SDS011;26539;51.064;6.346;2023-09-08T03:10:14;10.60;;;8.53;;
5217;SDS011;26539;51.064;6.346;2023-09-08T03:12:40;10.00;;;9.07;;
5217;SDS011;26539;51.064;6.346;2023-09-08T03:15:06;11.10;;;8.77;;
5217;SDS011;26539;51.064;6.346;2023-09-08T03:17:32;11.87;;;8.70;;
5217;SDS011;26539;51.064;6.346;2023-09-08T03:19:58;15.80;;;10.47;;
5217;SDS011;26539;51.064;6.346;2023-09-08T03:22:23;11.87;;;9.50;;
5217;SDS011;26539;51.064;6.346;2023-09-08T03:24:49;9.17;;;8.27;;
5217;SDS011;26539;51.064;6.346;2023-09-08T03:27:15;10.00;;;8.03;;
5217;SDS011;26539;51.064;6.346;2023-09-08T03:29:40;8.60;;;7.80;;
5217;SDS011;26539;51.064;6.346;2023-09-08T03:32:06;10.57;;;9.00;;
5217;SDS011;26539;51.064;6.346;2023-09-08T03:34:32;9.20;;;8.20;;
5217;SDS011;26539;51.064;6.346;2023-09-08T03:36:57;10.17;;;9.07;;
5217;SDS011;26539;51.064;6.346;2023-09-08T03:39:26;8.93;;;8.03;;
5217;SDS011;26539;51.064;6.346;2023-09-08T03:41:51;8.70;;;7.80;;
5217;SDS011;26539;51.064;6.346;2023-09-08T03:44:17;9.10;;;8.20;;
5217;SDS011;26539;51.064;6.346;2023-09-08T03:46:42;14.90;;;8.90;;
5217;SDS011;26539;51.064;6.346;2023-09-08T03:49:08;9.47;;;8.40;;
5217;SDS011;26539;51.064;6.346;2023-09-08T03:51:33;9.90;;;8.33;;
5217;SDS011;26539;51.064;6.346;2023-09-08T03:53:59;11.67;;;8.50;;
5217;SDS011;26539;51.064;6.346;2023-09-08T03:56:25;9.77;;;8.87;;
5217;SDS011;26539;51.064;6.346;2023-09-08T03:58:50;9.10;;;8.30;;
5217;SDS011;26539;51.064;6.346;2023-09-08T04:01:16;9.50;;;8.50;;
5217;SDS011;26539;51.064;6.346;2023-09-08T04:03:41;9.67;;;8.67;;
5217;SDS011;26539;51.064;6.346;2023-09-08T04:06:07;9.20;;;8.13;;
5217;SDS011;26539;51.064;6.346;2023-09-08T04:08:34;9.20;;;8.10;;
5217;SDS011;26539;51.064;6.346;2023-09-08T04:10:59;12.57;;;9.70;;
5217;SDS011;26539;51.064;6.346;2023-09-08T04:13:25;12.93;;;8.73;;
5217;SDS011;26539;51.064;6.346;2023-09-08T04:15:50;8.97;;;8.07;;
5217;SDS011;26539;51.064;6.346;2023-09-08T04:18:16;8.60;;;7.80;;
5217;SDS011;26539;51.064;6.346;2023-09-08T04:20:41;10.57;;;8.67;;
5217;SDS011;26539;51.064;6.346;2023-09-08T04:23:07;10.83;;;9.37;;
5217;SDS011;26539;51.064;6.346;2023-09-08T04:25:32;11.10;;;9.60;;
5217;SDS011;26539;51.064;6.346;2023-09-08T04:27:58;8.73;;;7.93;;
5217;SDS011;26539;51.064;6.346;2023-09-08T04:30:23;12.17;;;9.03;;
5217;SDS011;26539;51.064;6.346;2023-09-08T04:32:49;12.23;;;9.13;;
5217;SDS011;26539;51.064;6.346;2023-09-08T04:35:14;9.50;;;8.60;;
5217;SDS011;26539;51.064;6.346;2023-09-08T04:37:40;11.17;;;9.10;;
5217;SDS011;26539;51.064;6.346;2023-09-08T04:40:05;14.50;;;8.77;;
5217;SDS011;26539;51.064;6.346;2023-09-08T04:42:32;9.50;;;8.60;;
5217;SDS011;26539;51.064;6.346;2023-09-08T04:44:58;9.23;;;8.23;;
5217;SDS011;26539;51.064;6.346;2023-09-08T04:47:23;10.57;;;9.07;;
5217;SDS011;26539;51.064;6.346;2023-09-08T04:49:49;13.77;;;9.50;;
5217;SDS011;26539;51.064;6.346;2023-09-08T04:52:14;13.70;;;10.20;;
5217;SDS011;26539;51.064;6.346;2023-09-08T04:54:40;10.73;;;9.47;;
5217;SDS011;26539;51.064;6.346;2023-09-08T04:57:05;10.53;;;9.43;;
5217;SDS011;26539;51.064;6.346;2023-09-08T04:59:31;13.03;;;9.97;;
5217;SDS011;26539;51.064;6.346;2023-09-08T05:01:57;13.03;;;9.50;;
5217;SDS011;26539;51.064;6.346;2023-09-08T05:04:23;12.00;;;9.80;;
5217;SDS011;26539;51.064;6.346;2023-09-08T05:06:48;12.93;;;9.90;;
5217;SDS011;26539;51.064;6.346;2023-09-08T05:09:14;15.67;;;9.40;;
5217;SDS011;26539;51.064;6.346;2023-09-08T05:11:39;14.03;;;10.93;;
5217;SDS011;26539;51.064;6.346;2023-09-08T05:14:05;11.20;;;10.10;;
5217;SDS011;26539;51.064;6.346;2023-09-08T05:16:31;15.13;;;9.60;;
5217;SDS011;26539;51.064;6.346;2023-09-08T05:19:10;11.73;;;9.93;;
5217;SDS011;26539;51.064;6.346;2023-09-08T05:21:36;12.00;;;9.63;;
5217;SDS011;26539;51.064;6.346;2023-09-08T05:24:02;9.90;;;7.83;;
5217;SDS011;26539;51.064;6.346;2023-09-08T05:26:28;11.90;;;8.50;;
5217;SDS011;26539;51.064;6.346;2023-09-08T05:28:53;10.53;;;7.97;;
5217;SDS011;26539;51.064;6.346;2023-09-08T05:31:19;11.20;;;9.40;;
5217;SDS011;26539;51.064;6.346;2023-09-08T05:33:44;13.80;;;9.83;;
5217;SDS011;26539;51.064;6.346;2023-09-08T05:36:10;14.70;;;10.07;;
5217;SDS011;26539;51.064;6.346;2023-09-08T05:38:36;11.70;;;9.57;;
5217;SDS011;26539;51.064;6.346;2023-09-08T05:41:01;9.77;;;8.87;;
5217;SDS011;26539;51.064;6.346;2023-09-08T05:43:27;14.77;;;9.53;;
5217;SDS011;26539;51.064;6.346;2023-09-08T05:45:53;11.90;;;8.90;;
5217;SDS011;26539;51.064;6.346;2023-09-08T05:48:18;14.10;;;8.40;;
5217;SDS011;26539;51.064;6.346;2023-09-08T05:50:44;8.80;;;7.90;;
5217;SDS011;26539;51.064;6.346;2023-09-08T05:53:10;10.40;;;7.83;;
5217;SDS011;26539;51.064;6.346;2023-09-08T05:55:35;8.47;;;7.10;;
5217;SDS011;26539;51.064;6.346;2023-09-08T05:58:00;10.80;;;7.60;;
5217;SDS011;26539;51.064;6.346;2023-09-08T06:00:26;10.80;;;7.20;;
5217;SDS011;26539;51.064;6.346;2023-09-08T06:02:52;8.30;;;6.70;;
5217;SDS011;26539;51.064;6.346;2023-09-08T06:05:17;7.50;;;6.70;;
5217;SDS011;26539;51.064;6.346;2023-09-08T06:07:43;10.33;;;6.03;;
5217;SDS011;26539;51.064;6.346;2023-09-08T06:10:08;9.23;;;6.40;;
5217;SDS011;26539;51.064;6.346;2023-09-08T06:12:34;6.77;;;6.10;;
5217;SDS011;26539;51.064;6.346;2023-09-08T06:15:02;9.03;;;5.37;;
5217;SDS011;26539;51.064;6.346;2023-09-08T06:17:28;10.37;;;6.20;;
5217;SDS011;26539;51.064;6.346;2023-09-08T06:19:53;6.00;;;5.47;;
5217;SDS011;26539;51.064;6.346;2023-09-08T06:22:19;6.23;;;5.17;;
5217;SDS011;26539;51.064;6.346;2023-09-08T06:24:44;6.73;;;5.53;;
5217;SDS011;26539;51.064;6.346;2023-09-08T06:27:10;8.30;;;5.90;;
5217;SDS011;26539;51.064;6.346;2023-09-08T06:29:36;7.53;;;5.60;;
5217;SDS011;26539;51.064;6.346;2023-09-08T06:32:02;8.93;;;5.33;;
5217;SDS011;26539;51.064;6.346;2023-09-08T06:34:27;10.07;;;5.27;;
5217;SDS011;26539;51.064;6.346;2023-09-08T06:36:53;6.10;;;4.50;;
5217;SDS011;26539;51.064;6.346;2023-09-08T06:39:18;9.63;;;5.30;;
5217;SDS011;26539;51.064;6.346;2023-09-08T06:41:44;6.30;;;4.97;;
5217;SDS011;26539;51.064;6.346;2023-09-08T06:44:09;8.10;;;4.90;;
5217;SDS011;26539;51.064;6.346;2023-09-08T06:46:35;7.60;;;5.40;;
5217;SDS011;26539;51.064;6.346;2023-09-08T06:49:00;12.83;;;5.40;;
5217;SDS011;26539;51.064;6.346;2023-09-08T06:51:26;6.97;;;5.37;;
5217;SDS011;26539;51.064;6.346;2023-09-08T06:53:55;6.57;;;5.20;;
5217;SDS011;26539;51.064;6.346;2023-09-08T06:56:21;8.93;;;4.80;;
5217;SDS011;26539;51.064;6.346;2023-09-08T06:58:47;7.40;;;5.03;;
5217;SDS011;26539;51.064;6.346;2023-09-08T07:01:12;5.50;;;4.53;;
5217;SDS011;26539;51.064;6.346;2023-09-08T07:03:38;12.57;;;5.50;;
5217;SDS011;26539;51.064;6.346;2023-09-08T07:06:03;12.07;;;6.17;;
5217;SDS011;26539;51.064;6.346;2023-09-08T07:08:29;6.50;;;5.03;;
5217;SDS011;26539;51.064;6.346;2023-09-08T07:10:55;8.63;;;5.07;;
5217;SDS011;26539;51.064;6.346;2023-09-08T07:13:20;6.10;;;5.50;;
5217;SDS011;26539;51.064;6.346;2023-09-08T07:15:46;6.27;;;4.90;;
5217;SDS011;26539;51.064;6.346;2023-09-08T07:18:11;9.20;;;5.00;;
5217;SDS011;26539;51.064;6.346;2023-09-08T07:20:37;4.90;;;4.50;;
5217;SDS011;26539;51.064;6.346;2023-09-08T07:23:02;5.57;;;4.83;;
5217;SDS011;26539;51.064;6.346;2023-09-08T07:25:28;4.80;;;4.30;;
5217;SDS011;26539;51.064;6.346;2023-09-08T07:27:53;5.53;;;4.90;;
5217;SDS011;26539;51.064;6.346;2023-09-08T07:30:19;6.00;;;5.07;;
5217;SDS011;26539;51.064;6.346;2023-09-08T07:32:45;6.63;;;4.97;;
5217;SDS011;26539;51.064;6.346;2023-09-08T07:35:11;5.60;;;4.30;;
5217;SDS011;26539;51.064;6.346;2023-09-08T07:37:41;5.75;;;4.70;;
5217;SDS011;26539;51.064;6.346;2023-09-08T07:40:10;5.03;;;4.53;;
5217;SDS011;26539;51.064;6.346;2023-09-08T07:42:36;4.97;;;4.47;;
5217;SDS011;26539;51.064;6.346;2023-09-08T07:45:02;6.90;;;4.80;;
5217;SDS011;26539;51.064;6.346;2023-09-08T07:47:28;5.10;;;4.53;;
5217;SDS011;26539;51.064;6.346;2023-09-08T07:50:01;5.20;;;4.70;;
5217;SDS011;26539;51.064;6.346;2023-09-08T07:52:49;5.23;;;4.63;;
5217;SDS011;26539;51.064;6.346;2023-09-08T07:55:15;5.47;;;4.70;;
5217;SDS011;26539;51.064;6.346;2023-09-08T07:57:42;9.83;;;4.20;;
5217;SDS011;26539;51.064;6.346;2023-09-08T08:00:08;12.27;;;4.67;;
5217;SDS011;26539;51.064;6.346;2023-09-08T08:02:39;5.20;;;4.10;;
5217;SDS011;26539;51.064;6.346;2023-09-08T08:05:07;6.80;;;4.90;;
5217;SDS011;26539;51.064;6.346;2023-09-08T08:07:32;6.40;;;4.30;;
5217;SDS011;26539;51.064;6.346;2023-09-08T08:09:58;7.10;;;3.97;;
5217;SDS011;26539;51.064;6.346;2023-09-08T08:12:24;10.50;;;4.60;;
5217;SDS011;26539;51.064;6.346;2023-09-08T08:14:49;6.43;;;4.30;;
5217;SDS011;26539;51.064;6.346;2023-09-08T08:17:15;4.73;;;4.40;;
5217;SDS011;26539;51.064;6.346;2023-09-08T08:19:42;4.77;;;4.37;;
5217;SDS011;26539;51.064;6.346;2023-09-08T08:22:08;4.83;;;4.33;;
5217;SDS011;26539;51.064;6.346;2023-09-08T08:24:33;8.87;;;4.90;;
5217;SDS011;26539;51.064;6.346;2023-09-08T08:26:59;7.80;;;4.60;;
5217;SDS011;26539;51.064;6.346;2023-09-08T08:29:26;4.77;;;4.20;;
5217;SDS011;26539;51.064;6.346;2023-09-08T08:31:52;8.80;;;4.47;;
5217;SDS011;26539;51.064;6.346;2023-09-08T08:34:17;4.73;;;4.20;;
5217;SDS011;26539;51.064;6.346;2023-09-08T08:36:43;4.63;;;4.20;;
5217;SDS011;26539;51.064;6.346;2023-09-08T08:39:08;8.97;;;4.50;;
5217;SDS011;26539;51.064;6.346;2023-09-08T08:41:34;9.47;;;4.60;;
5217;SDS011;26539;51.064;6.346;2023-09-08T08:44:03;8.07;;;4.80;;
5217;SDS011;26539;51.064;6.346;2023-09-08T08:46:30;5.60;;;4.10;;
5217;SDS011;26539;51.064;6.346;2023-09-08T08:48:58;7.00;;;4.60;;
5217;SDS011;26539;51.064;6.346;2023-09-08T08:51:26;5.60;;;4.00;;
5217;SDS011;26539;51.064;6.346;2023-09-08T08:53:53;6.90;;;4.60;;
5217;SDS011;26539;51.064;6.346;2023-09-08T08:56:20;8.17;;;4.57;;
5217;SDS011;26539;51.064;6.346;2023-09-08T08:58:46;5.73;;;4.40;;
5217;SDS011;26539;51.064;6.346;2023-09-08T09:01:12;5.93;;;4.13;;
5217;SDS011;26539;51.064;6.346;2023-09-08T09:03:40;7.20;;;4.90;;
5217;SDS011;26539;51.064;6.346;2023-09-08T09:06:07;4.00;;;3.70;;
5217;SDS011;26539;51.064;6.346;2023-09-08T09:08:34;5.70;;;4.70;;
5217;SDS011;26539;51.064;6.346;2023-09-08T09:11:02;7.23;;;4.60;;
5217;SDS011;26539;51.064;6.346;2023-09-08T09:13:27;4.10;;;3.70;;
5217;SDS011;26539;51.064;6.346;2023-09-08T09:15:53;5.53;;;4.20;;
5217;SDS011;26539;51.064;6.346;2023-09-08T09:18:24;5.27;;;4.20;;
5217;SDS011;26539;51.064;6.346;2023-09-08T09:20:53;7.13;;;4.10;;
5217;SDS011;26539;51.064;6.346;2023-09-08T09:23:30;4.77;;;4.20;;
5217;SDS011;26539;51.064;6.346;2023-09-08T09:25:58;6.93;;;4.10;;
5217;SDS011;26539;51.064;6.346;2023-09-08T09:28:24;5.83;;;4.43;;
5217;SDS011;26539;51.064;6.346;2023-09-08T09:30:51;8.60;;;4.10;;
5217;SDS011;26539;51.064;6.346;2023-09-08T09:33:19;5.85;;;4.07;;
5217;SDS011;26539;51.064;6.346;2023-09-08T09:35:52;5.13;;;3.80;;
5217;SDS011;26539;51.064;6.346;2023-09-08T09:38:19;5.38;;;3.95;;
5217;SDS011;26539;51.064;6.346;2023-09-08T09:40:46;6.07;;;4.00;;
5217;SDS011;26539;51.064;6.346;2023-09-08T09:43:12;6.75;;;4.63;;
5217;SDS011;26539;51.064;6.346;2023-09-08T09:45:40;8.38;;;4.00;;
5217;SDS011;26539;51.064;6.346;2023-09-08T09:48:07;5.90;;;4.25;;
5217;SDS011;26539;51.064;6.346;2023-09-08T09:50:37;5.75;;;5.18;;
5217;SDS011;26539;51.064;6.346;2023-09-08T09:53:14;6.10;;;4.90;;
5217;SDS011;26539;51.064;6.346;2023-09-08T09:55:41;9.60;;;5.78;;
5217;SDS011;26539;51.064;6.346;2023-09-08T09:58:08;7.90;;;5.20;;
5217;SDS011;26539;51.064;6.346;2023-09-08T10:00:35;8.95;;;5.18;;
5217;SDS011;26539;51.064;6.346;2023-09-08T10:03:02;5.68;;;5.00;;
5217;SDS011;26539;51.064;6.346;2023-09-08T10:05:29;5.72;;;4.47;;
5217;SDS011;26539;51.064;6.346;2023-09-08T10:07:55;4.80;;;4.20;;
5217;SDS011;26539;51.064;6.346;2023-09-08T10:10:21;8.80;;;5.82;;
5217;SDS011;26539;51.064;6.346;2023-09-08T10:12:54;9.50;;;4.83;;
5217;SDS011;26539;51.064;6.346;2023-09-08T10:15:23;7.53;;;4.83;;
5217;SDS011;26539;51.064;6.346;2023-09-08T10:17:53;16.33;;;6.30;;
5217;SDS011;26539;51.064;6.346;2023-09-08T10:20:24;13.00;;;4.50;;
5217;SDS011;26539;51.064;6.346;2023-09-08T10:22:52;13.27;;;4.50;;
5217;SDS011;26539;51.064;6.346;2023-09-08T10:25:24;17.73;;;5.40;;
5217;SDS011;26539;51.064;6.346;2023-09-08T10:27:50;10.60;;;4.57;;
5217;SDS011;26539;51.064;6.346;2023-09-08T10:30:16;8.53;;;4.70;;
5217;SDS011;26539;51.064;6.346;2023-09-08T10:32:42;8.80;;;4.43;;
5217;SDS011;26539;51.064;6.346;2023-09-08T10:35:08;8.70;;;5.17;;
5217;SDS011;26539;51.064;6.346;2023-09-08T10:37:35;8.20;;;4.43;;
5217;SDS011;26539;51.064;6.346;2023-09-08T10:42:45;7.70;;;3.80;;
5217;SDS011;26539;51.064;6.346;2023-09-08T10:45:18;10.20;;;3.63;;
5217;SDS011;26539;51.064;6.346;2023-09-08T10:50:17;8.87;;;4.40;;
5217;SDS011;26539;51.064;6.346;2023-09-08T10:52:43;6.13;;;3.33;;
5217;SDS011;26539;51.064;6.346;2023-09-08T10:55:09;6.23;;;3.97;;
5217;SDS011;26539;51.064;6.346;2023-09-08T10:57:37;8.43;;;3.80;;
5217;SDS011;26539;51.064;6.346;2023-09-08T11:00:03;9.03;;;4.13;;
5217;SDS011;26539;51.064;6.346;2023-09-08T11:05:11;4.93;;;3.90;;
5217;SDS011;26539;51.064;6.346;2023-09-08T11:07:43;8.30;;;4.07;;
5217;SDS011;26539;51.064;6.346;2023-09-08T11:10:11;6.07;;;3.90;;
5217;SDS011;26539;51.064;6.346;2023-09-08T11:12:37;5.97;;;4.37;;
5217;SDS011;26539;51.064;6.346;2023-09-08T11:15:04;7.53;;;4.20;;
5217;SDS011;26539;51.064;6.346;2023-09-08T11:17:32;8.33;;;3.90;;
5217;SDS011;26539;51.064;6.346;2023-09-08T11:20:00;6.80;;;3.67;;
5217;SDS011;26539;51.064;6.346;2023-09-08T11:22:26;5.57;;;4.27;;
5217;SDS011;26539;51.064;6.346;2023-09-08T11:24:52;8.20;;;3.67;;
5217;SDS011;26539;51.064;6.346;2023-09-08T11:27:21;7.07;;;3.70;;
5217;SDS011;26539;51.064;6.346;2023-09-08T11:29:47;4.50;;;3.93;;
5217;SDS011;26539;51.064;6.346;2023-09-08T11:32:13;6.90;;;4.50;;
5217;SDS011;26539;51.064;6.346;2023-09-08T11:34:39;8.43;;;3.37;;
5217;SDS011;26539;51.064;6.346;2023-09-08T11:37:12;4.00;;;3.60;;
5217;SDS011;26539;51.064;6.346;2023-09-08T11:39:39;7.13;;;3.60;;
5217;SDS011;26539;51.064;6.346;2023-09-08T11:42:10;6.87;;;4.40;;
5217;SDS011;26539;51.064;6.346;2023-09-08T11:44:40;5.50;;;3.73;;
5217;SDS011;26539;51.064;6.346;2023-09-08T11:47:06;3.90;;;3.57;;
5217;SDS011;26539;51.064;6.346;2023-09-08T11:49:38;4.50;;;3.73;;
5217;SDS011;26539;51.064;6.346;2023-09-08T11:52:04;4.63;;;3.63;;
5217;SDS011;26539;51.064;6.346;2023-09-08T11:54:31;8.17;;;3.53;;
5217;SDS011;26539;51.064;6.346;2023-09-08T11:57:00;6.83;;;3.37;;
5217;SDS011;26539;51.064;6.346;2023-09-08T11:59:28;4.47;;;3.43;;
5217;SDS011;26539;51.064;6.346;2023-09-08T12:01:57;3.60;;;2.97;;
5217;SDS011;26539;51.064;6.346;2023-09-08T12:04:22;5.17;;;3.93;;
5217;SDS011;26539;51.064;6.346;2023-09-08T12:06:48;3.90;;;3.40;;
5217;SDS011;26539;51.064;6.346;2023-09-08T12:09:15;8.90;;;3.60;;
5217;SDS011;26539;51.064;6.346;2023-09-08T12:11:41;4.20;;;3.53;;
5217;SDS011;26539;51.064;6.346;2023-09-08T12:14:08;5.30;;;3.57;;
5217;SDS011;26539;51.064;6.346;2023-09-08T12:16:35;4.87;;;3.60;;
5217;SDS011;26539;51.064;6.346;2023-09-08T12:19:01;4.10;;;3.30;;
5217;SDS011;26539;51.064;6.346;2023-09-08T12:21:26;6.17;;;3.50;;
5217;SDS011;26539;51.064;6.346;2023-09-08T12:23:53;4.40;;;4.00;;
5217;SDS011;26539;51.064;6.346;2023-09-08T12:26:19;6.90;;;3.80;;
5217;SDS011;26539;51.064;6.346;2023-09-08T12:28:45;5.60;;;3.40;;
5217;SDS011;26539;51.064;6.346;2023-09-08T12:31:14;4.70;;;3.53;;
5217;SDS011;26539;51.064;6.346;2023-09-08T12:33:42;3.63;;;3.30;;
5217;SDS011;26539;51.064;6.346;2023-09-08T12:38:39;5.27;;;3.90;;
5217;SDS011;26539;51.064;6.346;2023-09-08T12:41:04;7.13;;;3.60;;
5217;SDS011;26539;51.064;6.346;2023-09-08T12:43:30;6.03;;;3.83;;
5217;SDS011;26539;51.064;6.346;2023-09-08T12:45:55;8.73;;;3.93;;
5217;SDS011;26539;51.064;6.346;2023-09-08T12:48:21;6.57;;;3.40;;
5217;SDS011;26539;51.064;6.346;2023-09-08T12:50:47;5.17;;;3.53;;
5217;SDS011;26539;51.064;6.346;2023-09-08T12:53:14;4.53;;;3.57;;
5217;SDS011;26539;51.064;6.346;2023-09-08T12:55:40;5.77;;;3.60;;
5217;SDS011;26539;51.064;6.346;2023-09-08T12:58:06;9.60;;;3.70;;
5217;SDS011;26539;51.064;6.346;2023-09-08T13:00:31;5.67;;;3.80;;
5217;SDS011;26539;51.064;6.346;2023-09-08T13:02:56;10.13;;;4.20;;
5217;SDS011;26539;51.064;6.346;2023-09-08T13:05:22;7.97;;;4.00;;
5217;SDS011;26539;51.064;6.346;2023-09-08T13:07:48;8.20;;;3.73;;
5217;SDS011;26539;51.064;6.346;2023-09-08T13:10:13;4.03;;;3.50;;
5217;SDS011;26539;51.064;6.346;2023-09-08T13:12:40;6.13;;;4.10;;
5217;SDS011;26539;51.064;6.346;2023-09-08T13:15:06;5.83;;;3.50;;
5217;SDS011;26539;51.064;6.346;2023-09-08T13:17:32;10.07;;;4.03;;
5217;SDS011;26539;51.064;6.346;2023-09-08T13:19:58;8.03;;;5.70;;
5217;SDS011;26539;51.064;6.346;2023-09-08T13:22:23;8.43;;;4.10;;
5217;SDS011;26539;51.064;6.346;2023-09-08T13:24:49;6.97;;;3.90;;
5217;SDS011;26539;51.064;6.346;2023-09-08T13:27:14;7.50;;;4.13;;
5217;SDS011;26539;51.064;6.346;2023-09-08T13:29:43;5.63;;;4.40;;
5217;SDS011;26539;51.064;6.346;2023-09-08T13:32:08;7.10;;;3.67;;
5217;SDS011;26539;51.064;6.346;2023-09-08T13:34:34;4.63;;;4.23;;
5217;SDS011;26539;51.064;6.346;2023-09-08T13:37:00;13.67;;;5.70;;
5217;SDS011;26539;51.064;6.346;2023-09-08T13:39:27;6.53;;;4.00;;
5217;SDS011;26539;51.064;6.346;2023-09-08T13:41:53;7.40;;;3.80;;
5217;SDS011;26539;51.064;6.346;2023-09-08T13:44:21;6.63;;;3.37;;
5217;SDS011;26539;51.064;6.346;2023-09-08T13:46:48;4.20;;;3.90;;
5217;SDS011;26539;51.064;6.346;2023-09-08T13:49:14;8.57;;;4.50;;
5217;SDS011;26539;51.064;6.346;2023-09-08T13:51:40;6.47;;;3.90;;
5217;SDS011;26539;51.064;6.346;2023-09-08T13:54:06;7.63;;;4.50;;
5217;SDS011;26539;51.064;6.346;2023-09-08T13:56:33;7.50;;;4.20;;
5217;SDS011;26539;51.064;6.346;2023-09-08T13:58:58;8.30;;;4.50;;
5217;SDS011;26539;51.064;6.346;2023-09-08T14:01:24;5.60;;;3.97;;
5217;SDS011;26539;51.064;6.346;2023-09-08T14:03:52;8.13;;;3.97;;
5217;SDS011;26539;51.064;6.346;2023-09-08T14:06:18;5.20;;;3.70;;
5217;SDS011;26539;51.064;6.346;2023-09-08T14:08:44;6.40;;;4.63;;
5217;SDS011;26539;51.064;6.346;2023-09-08T14:11:09;6.33;;;4.13;;
5217;SDS011;26539;51.064;6.346;2023-09-08T14:13:37;5.40;;;3.80;;
5217;SDS011;26539;51.064;6.346;2023-09-08T14:16:03;7.13;;;5.10;;
5217;SDS011;26539;51.064;6.346;2023-09-08T14:18:28;8.47;;;4.70;;
5217;SDS011;26539;51.064;6.346;2023-09-08T14:20:54;5.83;;;4.00;;
5217;SDS011;26539;51.064;6.346;2023-09-08T14:23:20;10.57;;;4.40;;
5217;SDS011;26539;51.064;6.346;2023-09-08T14:25:45;5.57;;;4.73;;
5217;SDS011;26539;51.064;6.346;2023-09-08T14:28:11;6.90;;;4.30;;
5217;SDS011;26539;51.064;6.346;2023-09-08T14:30:36;9.83;;;4.03;;
5217;SDS011;26539;51.064;6.346;2023-09-08T14:33:02;6.83;;;4.50;;
5217;SDS011;26539;51.064;6.346;2023-09-08T14:35:28;6.83;;;4.03;;
5217;SDS011;26539;51.064;6.346;2023-09-08T14:37:53;4.23;;;3.83;;
5217;SDS011;26539;51.064;6.346;2023-09-08T14:40:19;7.70;;;4.63;;
5217;SDS011;26539;51.064;6.346;2023-09-08T14:42:47;4.47;;;4.13;;
5217;SDS011;26539;51.064;6.346;2023-09-08T14:45:13;10.57;;;4.23;;
5217;SDS011;26539;51.064;6.346;2023-09-08T14:47:39;6.00;;;4.17;;
5217;SDS011;26539;51.064;6.346;2023-09-08T14:50:04;5.17;;;4.10;;
5217;SDS011;26539;51.064;6.346;2023-09-08T14:52:30;8.50;;;4.17;;
5217;SDS011;26539;51.064;6.346;2023-09-08T14:54:56;6.93;;;3.77;;
5217;SDS011;26539;51.064;6.346;2023-09-08T14:57:21;6.03;;;4.33;;
5217;SDS011;26539;51.064;6.346;2023-09-08T14:59:47;7.03;;;4.60;;
5217;SDS011;26539;51.064;6.346;2023-09-08T15:02:13;8.23;;;4.30;;
5217;SDS011;26539;51.064;6.346;2023-09-08T15:04:38;6.63;;;4.90;;
5217;SDS011;26539;51.064;6.346;2023-09-08T15:07:04;5.50;;;4.30;;